createdAt,value
2019-02-28T00:01:24.719Z,100633.37
2019-02-28T00:03:54.326Z,100628.09
2019-02-28T00:06:23.884Z,100622.77
2019-02-28T00:08:53.835Z,100617.11
2019-02-28T00:11:23.990Z,100619.66
2019-02-28T00:13:55.828Z,100614.34
2019-02-28T00:16:25.076Z,100616.39
2019-02-28T00:18:54.620Z,100612.83
2019-02-28T00:21:24.169Z,100598.47
2019-02-28T00:23:57.301Z,100602.27
2019-02-28T00:26:25.027Z,100601.76
2019-02-28T00:28:56.958Z,100597.31
2019-02-28T00:31:26.248Z,100593.42
2019-02-28T00:33:55.807Z,100588.65
2019-02-28T00:36:25.363Z,100575.69
2019-02-28T00:38:55.229Z,100575.27
2019-02-28T00:41:24.924Z,100571.38
2019-02-28T00:43:56.926Z,100566.20
2019-02-28T00:46:25.993Z,100557.22
2019-02-28T00:48:55.547Z,100556.89
2019-02-28T00:51:25.176Z,100548.83
2019-02-28T00:53:55.140Z,100549.71
2019-02-28T00:56:24.707Z,100545.91
2019-02-28T00:58:54.258Z,100535.20
2019-02-28T01:01:26.566Z,100528.42
2019-02-28T01:03:58.066Z,100528.14
2019-02-28T01:06:27.547Z,100523.88
2019-02-28T01:08:57.190Z,100521.78
2019-02-28T01:11:26.736Z,100522.70
2019-02-28T01:13:58.100Z,100514.58
2019-02-28T01:16:27.578Z,100511.11
2019-02-28T01:18:57.135Z,100507.76
2019-02-28T01:21:26.693Z,100500.44
2019-02-28T01:23:56.662Z,100497.46
2019-02-28T01:26:26.231Z,100488.91
2019-02-28T01:29:01.506Z,100482.05
2019-02-28T01:31:27.245Z,100484.27
2019-02-28T01:33:58.779Z,100475.68
2019-02-28T01:36:28.161Z,100477.97
2019-02-28T01:38:58.761Z,100473.70
2019-02-28T01:41:28.504Z,100473.35
2019-02-28T01:43:58.136Z,100469.61
2019-02-28T01:46:27.720Z,100467.62
2019-02-28T01:48:57.291Z,100456.99
2019-02-28T01:51:26.992Z,100457.52
2019-02-28T01:53:56.574Z,100458.58
2019-02-28T01:56:26.181Z,100458.75
2019-02-28T01:58:55.771Z,100452.48
2019-02-28T02:01:25.410Z,100460.91
2019-02-28T02:03:54.984Z,100443.72
2019-02-28T02:06:25.723Z,100435.14
2019-02-28T02:08:56.082Z,100426.17
2019-02-28T02:11:26.678Z,100426.20
2019-02-28T02:13:56.862Z,100428.41
2019-02-28T02:16:27.749Z,100428.83
2019-02-28T02:18:57.586Z,100419.28
2019-02-28T02:21:27.419Z,100423.20
2019-02-28T02:23:57.002Z,100420.58
2019-02-28T02:26:26.621Z,100422.30
2019-02-28T02:29:00.870Z,100425.33
2019-02-28T02:31:29.118Z,100418.80
2019-02-28T02:33:58.879Z,100413.12
2019-02-28T02:36:28.431Z,100414.80
2019-02-28T02:38:58.006Z,100412.99
2019-02-28T02:41:27.557Z,100412.56
2019-02-28T02:43:57.187Z,100405.20
2019-02-28T02:46:26.765Z,100405.59
2019-02-28T02:48:56.690Z,100388.18
2019-02-28T02:51:26.250Z,100393.31
2019-02-28T02:53:55.831Z,100383.22
2019-02-28T02:56:25.385Z,100387.02
2019-02-28T02:58:54.940Z,100371.86
2019-02-28T03:01:24.718Z,100369.66
2019-02-28T03:03:54.233Z,100368.80
2019-02-28T03:06:23.806Z,100357.93
2019-02-28T03:08:53.474Z,100359.20
2019-02-28T03:11:24.883Z,100367.83
2019-02-28T03:13:54.330Z,100368.71
2019-02-28T03:16:23.989Z,100358.32
2019-02-28T03:18:58.183Z,100351.77
2019-02-28T03:21:24.822Z,100350.86
2019-02-28T03:23:54.411Z,100352.52
2019-02-28T03:26:23.985Z,100353.69
2019-02-28T03:28:53.538Z,100351.44
2019-02-28T03:31:23.486Z,100349.14
2019-02-28T03:33:53.043Z,100352.51
2019-02-28T03:36:22.603Z,100350.72
2019-02-28T03:38:52.291Z,100352.41
2019-02-28T03:41:21.871Z,100350.66
2019-02-28T03:43:51.452Z,100341.99
2019-02-28T03:46:21.250Z,100342.06
2019-02-28T03:48:50.807Z,100333.43
2019-02-28T03:51:20.679Z,100333.84
2019-02-28T03:53:55.548Z,100338.66
2019-02-28T03:56:21.691Z,100331.70
2019-02-28T03:58:51.235Z,100331.73
2019-02-28T04:01:21.318Z,100330.05
2019-02-28T04:03:51.109Z,100332.26
2019-02-28T04:06:20.663Z,100327.42
2019-02-28T04:08:50.248Z,100324.31
2019-02-28T04:11:19.806Z,100319.95
2019-02-28T04:13:52.531Z,100318.63
2019-02-28T04:16:21.119Z,100318.20
2019-02-28T04:18:50.696Z,100313.41
2019-02-28T04:21:20.578Z,100325.51
2019-02-28T04:23:50.353Z,100317.66
2019-02-28T04:26:19.897Z,100312.36
2019-02-28T04:28:53.508Z,100293.67
2019-02-28T04:31:21.011Z,100300.12
2019-02-28T04:33:50.569Z,100301.36
2019-02-28T04:36:20.122Z,100290.48
2019-02-28T04:38:51.727Z,100285.69
2019-02-28T04:41:21.598Z,100283.94
2019-02-28T04:43:51.149Z,100276.50
2019-02-28T04:46:20.911Z,100274.33
2019-02-28T04:48:50.463Z,100271.25
2019-02-28T04:51:20.019Z,100263.84
2019-02-28T04:53:52.680Z,100263.43
2019-02-28T04:56:21.231Z,100259.47
2019-02-28T04:58:50.872Z,100252.42
2019-02-28T05:01:20.825Z,100251.94
2019-02-28T05:03:50.396Z,100258.45
2019-02-28T05:06:21.150Z,100253.34
2019-02-28T05:08:51.899Z,100249.90
2019-02-28T05:11:21.589Z,100240.79
2019-02-28T05:13:51.158Z,100241.20
2019-02-28T05:16:20.748Z,100244.13
2019-02-28T05:18:50.312Z,100241.53
2019-02-28T05:21:20.285Z,100243.70
2019-02-28T05:23:49.974Z,100245.80
2019-02-28T05:26:19.630Z,100251.83
2019-02-28T05:28:49.238Z,100253.55
2019-02-28T05:31:18.831Z,100242.30
2019-02-28T05:33:48.393Z,100237.98
2019-02-28T05:36:17.938Z,100244.93
2019-02-28T05:38:47.700Z,100245.73
2019-02-28T05:41:17.254Z,100243.98
2019-02-28T05:43:46.815Z,100239.67
2019-02-28T05:46:16.396Z,100231.02
2019-02-28T05:48:45.950Z,100219.84
2019-02-28T05:51:15.502Z,100222.88
2019-02-28T05:53:45.089Z,100221.52
2019-02-28T05:56:14.899Z,100216.66
2019-02-28T05:58:44.493Z,100211.46
2019-02-28T06:01:14.138Z,100221.77
2019-02-28T06:03:43.702Z,100216.09
2019-02-28T06:06:13.373Z,100218.69
2019-02-28T06:08:43.314Z,100224.33
2019-02-28T06:11:12.876Z,100225.66
2019-02-28T06:13:42.435Z,100223.13
2019-02-28T06:16:12.536Z,100231.86
2019-02-28T06:18:42.056Z,100238.45
2019-02-28T06:21:11.620Z,100236.30
2019-02-28T06:23:41.675Z,100237.70
2019-02-28T06:26:11.248Z,100250.32
2019-02-28T06:28:40.835Z,100252.98
2019-02-28T06:31:14.257Z,100253.02
2019-02-28T06:33:42.104Z,100250.69
2019-02-28T06:36:11.704Z,100253.46
2019-02-28T06:38:41.461Z,100242.33
2019-02-28T06:41:11.015Z,100235.02
2019-02-28T06:43:40.566Z,100242.14
2019-02-28T06:46:10.595Z,100233.92
2019-02-28T06:48:40.185Z,100243.39
2019-02-28T06:51:09.769Z,100227.48
2019-02-28T06:53:40.552Z,100229.30
2019-02-28T06:56:10.107Z,100239.34
2019-02-28T06:58:39.729Z,100240.56
2019-02-28T07:01:09.495Z,100245.71
2019-02-28T07:03:39.870Z,100241.70
2019-02-28T07:06:09.495Z,100242.50
2019-02-28T07:08:39.119Z,100233.73
2019-02-28T07:11:08.855Z,100228.82
2019-02-28T07:13:40.003Z,100219.84
2019-02-28T07:16:09.959Z,100212.06
2019-02-28T07:18:39.875Z,100201.20
2019-02-28T07:21:09.428Z,100201.36
2019-02-28T07:23:39.074Z,100194.39
2019-02-28T07:26:08.878Z,100197.02
2019-02-28T07:28:38.419Z,100206.89
2019-02-28T07:31:08.051Z,100205.47
2019-02-28T07:33:37.625Z,100208.27
2019-02-28T07:36:09.626Z,100216.55
2019-02-28T07:38:38.497Z,100211.78
2019-02-28T07:41:08.067Z,100221.81
2019-02-28T07:43:37.861Z,100224.99
2019-02-28T07:46:08.774Z,100230.52
2019-02-28T07:48:38.579Z,100225.78
2019-02-28T07:51:08.134Z,100227.98
2019-02-28T07:53:40.990Z,100226.22
2019-02-28T07:56:09.069Z,100231.13
2019-02-28T07:58:38.676Z,100223.25
2019-02-28T08:01:08.271Z,100232.60
2019-02-28T08:03:37.908Z,100231.31
2019-02-28T08:06:07.617Z,100228.22
2019-02-28T08:08:37.549Z,100242.72
2019-02-28T08:11:14.229Z,100245.94
2019-02-28T08:13:43.830Z,100249.91
2019-02-28T08:16:13.404Z,100247.00
2019-02-28T08:18:43.010Z,100248.77
2019-02-28T08:21:12.598Z,100246.35
2019-02-28T08:23:42.174Z,100231.02
2019-02-28T08:26:11.797Z,100227.98
2019-02-28T08:28:41.915Z,100240.39
2019-02-28T08:31:12.227Z,100247.43
2019-02-28T08:33:41.782Z,100250.86
2019-02-28T08:36:12.690Z,100247.55
2019-02-28T08:38:43.736Z,100255.41
2019-02-28T08:41:13.529Z,100252.53
2019-02-28T08:43:44.638Z,100253.42
2019-02-28T08:46:14.562Z,100244.61
2019-02-28T08:48:44.496Z,100253.09
2019-02-28T08:51:14.089Z,100241.69
2019-02-28T08:53:43.645Z,100242.73
2019-02-28T08:56:14.102Z,100251.49
2019-02-28T08:58:44.489Z,100235.00
2019-02-28T09:01:14.058Z,100242.82
2019-02-28T09:03:43.684Z,100227.22
2019-02-28T09:06:13.286Z,100216.62
2019-02-28T09:08:42.881Z,100209.61
2019-02-28T09:11:12.451Z,100205.72
2019-02-28T09:13:42.932Z,100224.28
2019-02-28T09:16:13.219Z,100221.98
2019-02-28T09:18:44.785Z,100206.30
2019-02-28T09:21:15.425Z,100205.44
2019-02-28T09:23:45.509Z,100219.55
2019-02-28T09:26:15.070Z,100212.64
2019-02-28T09:28:47.537Z,100216.24
2019-02-28T09:31:15.930Z,100216.69
2019-02-28T09:33:45.730Z,100211.97
2019-02-28T09:36:20.228Z,100225.27
2019-02-28T09:38:46.604Z,100215.04
2019-02-28T09:41:16.158Z,100217.92
2019-02-28T09:43:45.748Z,100221.40
2019-02-28T09:46:16.358Z,100217.46
2019-02-28T09:48:46.031Z,100217.70
2019-02-28T09:51:15.906Z,100223.02
2019-02-28T09:53:47.331Z,100228.89
2019-02-28T09:56:17.132Z,100219.84
2019-02-28T09:58:46.697Z,100231.52
2019-02-28T10:01:16.357Z,100234.97
2019-02-28T10:03:46.031Z,100241.77
2019-02-28T10:06:16.404Z,100246.92
2019-02-28T10:08:47.256Z,100235.20
2019-02-28T10:11:16.810Z,100233.28
2019-02-28T10:13:49.597Z,100240.86
2019-02-28T10:16:17.734Z,100232.81
2019-02-28T10:18:47.276Z,100238.13
2019-02-28T10:21:16.831Z,100246.94
2019-02-28T10:23:46.399Z,100254.33
2019-02-28T10:26:17.243Z,100252.14
2019-02-28T10:28:47.272Z,100249.84
2019-02-28T10:31:16.839Z,100254.37
2019-02-28T10:33:46.415Z,100261.20
2019-02-28T10:36:16.067Z,100267.56
2019-02-28T10:38:45.633Z,100269.09
2019-02-28T10:41:15.462Z,100270.78
2019-02-28T10:43:49.883Z,100263.68
2019-02-28T10:46:19.310Z,100260.11
2019-02-28T10:48:50.989Z,100242.02
2019-02-28T10:51:19.275Z,100242.82
2019-02-28T10:53:48.839Z,100243.33
2019-02-28T10:56:18.385Z,100238.70
2019-02-28T10:58:50.156Z,100230.84
2019-02-28T11:01:20.710Z,100235.16
2019-02-28T11:03:50.839Z,100233.94
2019-02-28T11:06:20.503Z,100232.92
2019-02-28T11:08:50.055Z,100225.52
2019-02-28T11:11:21.588Z,100235.64
2019-02-28T11:13:51.664Z,100235.30
2019-02-28T11:16:23.564Z,100234.55
2019-02-28T11:18:52.585Z,100230.30
2019-02-28T11:21:22.582Z,100242.91
2019-02-28T11:23:52.230Z,100229.33
2019-02-28T11:26:21.838Z,100244.11
2019-02-28T11:28:51.604Z,100247.06
2019-02-28T11:31:21.232Z,100245.11
2019-02-28T11:33:50.885Z,100250.95
2019-02-28T11:36:20.803Z,100248.92
2019-02-28T11:38:52.479Z,100246.84
2019-02-28T11:41:21.708Z,100254.81
2019-02-28T11:43:51.298Z,100254.06
2019-02-28T11:46:21.005Z,100260.66
2019-02-28T11:48:51.093Z,100247.55
2019-02-28T11:51:21.966Z,100259.80
2019-02-28T11:53:51.582Z,100256.34
2019-02-28T11:56:21.323Z,100248.07
2019-02-28T11:58:51.562Z,100244.20
2019-02-28T12:01:22.447Z,100242.45
2019-02-28T12:03:51.993Z,100245.08
2019-02-28T12:06:22.342Z,100228.03
2019-02-28T12:08:52.847Z,100234.10
2019-02-28T12:11:22.439Z,100233.66
2019-02-28T12:13:55.193Z,100228.42
2019-02-28T12:16:23.462Z,100234.59
2019-02-28T12:18:53.020Z,100230.66
2019-02-28T12:21:22.575Z,100230.17
2019-02-28T12:23:54.261Z,100228.41
2019-02-28T12:26:23.440Z,100230.14
2019-02-28T12:28:54.372Z,100224.88
2019-02-28T12:31:24.071Z,100242.27
2019-02-28T12:33:56.802Z,100223.90
2019-02-28T12:36:24.926Z,100236.53
2019-02-28T12:38:54.502Z,100238.68
2019-02-28T12:41:25.240Z,100243.45
2019-02-28T12:43:55.667Z,100243.83
2019-02-28T12:46:25.392Z,100240.77
2019-02-28T12:48:55.029Z,100244.26
2019-02-28T12:51:24.585Z,100243.38
2019-02-28T12:53:56.219Z,100246.86
2019-02-28T12:56:26.131Z,100242.50
2019-02-28T12:58:55.678Z,100246.87
2019-02-28T13:01:25.262Z,100251.27
2019-02-28T13:04:00.205Z,100246.95
2019-02-28T13:06:26.278Z,100241.28
2019-02-28T13:08:55.851Z,100239.53
2019-02-28T13:11:25.640Z,100249.14
2019-02-28T13:13:55.235Z,100253.53
2019-02-28T13:16:24.965Z,100243.02
2019-02-28T13:18:56.402Z,100249.50
2019-02-28T13:21:26.032Z,100245.97
2019-02-28T13:23:55.645Z,100245.98
2019-02-28T13:26:25.297Z,100254.31
2019-02-28T13:28:57.478Z,100242.95
2019-02-28T13:31:27.056Z,100245.64
2019-02-28T13:33:56.782Z,100236.93
2019-02-28T13:36:26.679Z,100236.52
2019-02-28T13:38:56.267Z,100244.89
2019-02-28T13:41:26.701Z,100244.48
2019-02-28T13:43:59.284Z,100245.38
2019-02-28T13:46:32.809Z,100238.87
2019-02-28T13:48:59.691Z,100241.50
2019-02-28T13:51:29.404Z,100243.70
2019-02-28T13:53:59.040Z,100238.91
2019-02-28T13:56:29.071Z,100238.95
2019-02-28T13:58:59.997Z,100230.64
2019-02-28T14:01:29.713Z,100238.13
2019-02-28T14:03:59.290Z,100231.17
2019-02-28T14:06:28.893Z,100236.86
2019-02-28T14:08:58.464Z,100235.59
2019-02-28T14:11:28.751Z,100254.37
2019-02-28T14:13:58.536Z,100253.94
2019-02-28T14:16:28.185Z,100252.19
2019-02-28T14:18:57.815Z,100256.12
2019-02-28T14:21:27.532Z,100262.23
2019-02-28T14:23:59.038Z,100260.09
2019-02-28T14:26:28.437Z,100258.80
2019-02-28T14:28:58.022Z,100260.10
2019-02-28T14:31:29.593Z,100261.85
2019-02-28T14:33:58.875Z,100261.86
2019-02-28T14:36:28.503Z,100256.66
2019-02-28T14:38:58.160Z,100257.97
2019-02-28T14:41:30.878Z,100260.16
2019-02-28T14:43:59.008Z,100257.98
2019-02-28T14:46:28.595Z,100254.95
2019-02-28T14:48:58.146Z,100251.03
2019-02-28T14:51:28.577Z,100244.93
2019-02-28T14:53:59.006Z,100246.27
2019-02-28T14:56:28.628Z,100244.52
2019-02-28T14:58:58.228Z,100242.78
2019-02-28T15:01:27.778Z,100240.59
2019-02-28T15:03:57.383Z,100242.78
2019-02-28T15:06:29.611Z,100239.72
2019-02-28T15:08:58.296Z,100246.30
2019-02-28T15:11:27.884Z,100249.78
2019-02-28T15:13:57.531Z,100239.75
2019-02-28T15:16:26.570Z,100238.88
2019-02-28T15:18:57.813Z,100238.00
2019-02-28T15:21:27.393Z,100238.03
2019-02-28T15:23:56.971Z,100241.50
2019-02-28T15:26:29.506Z,100231.50
2019-02-28T15:28:57.830Z,100234.94
2019-02-28T15:31:27.390Z,100240.62
2019-02-28T15:33:56.968Z,100242.78
2019-02-28T15:36:26.600Z,100241.06
2019-02-28T15:38:56.153Z,100246.27
2019-02-28T15:41:25.748Z,100243.66
2019-02-28T15:43:55.321Z,100247.99
2019-02-28T15:46:24.876Z,100246.70
2019-02-28T15:48:54.503Z,100246.23
2019-02-28T15:51:25.643Z,100247.12
2019-02-28T15:53:55.425Z,100250.59
2019-02-28T15:56:25.059Z,100247.06
2019-02-28T15:58:54.631Z,100260.55
2019-02-28T16:01:24.198Z,100254.00
2019-02-28T16:03:53.862Z,100258.30
2019-02-28T16:06:23.416Z,100256.13
2019-02-28T16:08:53.428Z,100256.52
2019-02-28T16:11:22.987Z,100254.30
2019-02-28T16:13:52.570Z,100262.53
2019-02-28T16:16:24.726Z,100267.71
2019-02-28T16:18:53.483Z,100263.31
2019-02-28T16:21:23.073Z,100280.20
2019-02-28T16:23:52.640Z,100281.03
2019-02-28T16:26:22.712Z,100289.73
2019-02-28T16:28:52.534Z,100290.94
2019-02-28T16:31:22.090Z,100292.20
2019-02-28T16:33:51.965Z,100288.26
2019-02-28T16:36:22.155Z,100296.89
2019-02-28T16:38:53.023Z,100305.55
2019-02-28T16:41:22.581Z,100300.69
2019-02-28T16:43:55.265Z,100298.91
2019-02-28T16:46:23.524Z,100304.91
2019-02-28T16:48:53.079Z,100303.54
2019-02-28T16:51:22.663Z,100300.00
2019-02-28T16:53:53.203Z,100301.25
2019-02-28T16:56:22.776Z,100308.16
2019-02-28T16:58:53.818Z,100311.13
2019-02-28T17:01:23.683Z,100309.76
2019-02-28T17:03:53.235Z,100315.72
2019-02-28T17:06:23.353Z,100307.77
2019-02-28T17:08:55.333Z,100316.81
2019-02-28T17:11:24.948Z,100322.36
2019-02-28T17:13:56.156Z,100324.41
2019-02-28T17:16:27.707Z,100321.71
2019-02-28T17:18:57.446Z,100333.77
2019-02-28T17:21:27.219Z,100327.98
2019-02-28T17:23:57.787Z,100330.09
2019-02-28T17:26:31.055Z,100337.41
2019-02-28T17:29:01.992Z,100336.10
2019-02-28T17:31:44.678Z,100341.28
2019-02-28T17:34:15.621Z,100346.38
2019-02-28T17:36:47.708Z,100355.89
2019-02-28T17:39:16.652Z,100352.73
2019-02-28T17:41:46.495Z,100355.62
2019-02-28T17:44:29.603Z,100353.30
2019-02-28T17:47:22.007Z,100350.59
2019-02-28T17:50:29.454Z,100350.42
2019-02-28T17:53:12.560Z,100355.06
2019-02-28T17:56:08.121Z,100349.71
2019-02-28T17:59:04.263Z,100352.25
2019-02-28T18:02:12.116Z,100362.95
2019-02-28T18:05:04.220Z,100365.03
2019-02-28T18:08:16.455Z,100368.52
2019-02-28T18:11:11.286Z,100365.00
2019-02-28T18:14:16.105Z,100361.86
2019-02-28T18:17:08.730Z,100363.03
2019-02-28T18:20:13.579Z,100366.83
2019-02-28T18:22:48.692Z,100367.22
2019-02-28T18:25:52.021Z,100365.47
2019-02-28T18:28:54.904Z,100364.95
2019-02-28T18:31:23.944Z,100367.45
2019-02-28T18:33:57.300Z,100376.01
2019-02-28T18:36:30.077Z,100382.82
2019-02-28T18:38:59.632Z,100370.58
2019-02-28T18:41:29.353Z,100376.47
2019-02-28T18:43:59.954Z,100377.24
2019-02-28T18:46:30.800Z,100384.54
2019-02-28T18:49:00.483Z,100381.95
2019-02-28T18:51:30.038Z,100374.16
2019-02-28T18:53:59.766Z,100380.23
2019-02-28T18:56:29.418Z,100375.07
2019-02-28T18:58:58.961Z,100373.31
2019-02-28T19:01:28.536Z,100372.41
2019-02-28T19:03:58.090Z,100371.95
2019-02-28T19:06:27.744Z,100364.09
2019-02-28T19:08:57.311Z,100368.75
2019-02-28T19:11:26.919Z,100369.03
2019-02-28T19:13:56.514Z,100362.43
2019-02-28T19:16:26.070Z,100366.70
2019-02-28T19:18:55.859Z,100369.30
2019-02-28T19:21:25.444Z,100370.56
2019-02-28T19:23:55.049Z,100372.66
2019-02-28T19:26:24.639Z,100373.84
2019-02-28T19:28:54.183Z,100374.61
2019-02-28T19:31:23.760Z,100381.09
2019-02-28T19:33:53.297Z,100384.18
2019-02-28T19:36:22.914Z,100379.11
2019-02-28T19:38:52.496Z,100386.09
2019-02-28T19:41:22.045Z,100381.77
2019-02-28T19:43:51.643Z,100384.72
2019-02-28T19:46:21.183Z,100385.13
2019-02-28T19:48:50.759Z,100387.69
2019-02-28T19:51:20.293Z,100383.73
2019-02-28T19:53:49.853Z,100382.77
2019-02-28T19:56:19.461Z,100385.25
2019-02-28T19:58:49.027Z,100386.89
2019-02-28T20:01:19.328Z,100389.81
2019-02-28T20:03:49.197Z,100386.69
2019-02-28T20:06:18.746Z,100384.09
2019-02-28T20:08:48.530Z,100391.88
2019-02-28T20:11:20.303Z,100390.83
2019-02-28T20:13:50.404Z,100390.29
2019-02-28T20:16:20.261Z,100391.92
2019-02-28T20:18:50.443Z,100389.75
2019-02-28T20:21:20.231Z,100387.66
2019-02-28T20:23:49.851Z,100401.50
2019-02-28T20:26:19.413Z,100405.02
2019-02-28T20:28:49.014Z,100400.75
2019-02-28T20:31:18.983Z,100403.42
2019-02-28T20:33:48.695Z,100402.66
2019-02-28T20:36:18.428Z,100412.69
2019-02-28T20:38:47.970Z,100405.88
2019-02-28T20:41:17.520Z,100416.10
2019-02-28T20:43:47.426Z,100408.55
2019-02-28T20:46:18.514Z,100410.81
2019-02-28T20:48:48.061Z,100412.14
2019-02-28T20:51:18.040Z,100414.78
2019-02-28T20:53:47.597Z,100413.09
2019-02-28T20:56:17.154Z,100417.87
2019-02-28T20:58:46.859Z,100423.06
2019-02-28T21:01:16.417Z,100432.59
2019-02-28T21:03:45.987Z,100438.31
2019-02-28T21:06:15.764Z,100437.09
2019-02-28T21:08:45.376Z,100433.77
2019-02-28T21:11:14.927Z,100433.08
2019-02-28T21:13:44.513Z,100426.70
2019-02-28T21:16:14.081Z,100431.97
2019-02-28T21:18:43.614Z,100441.55
2019-02-28T21:21:13.696Z,100438.98
2019-02-28T21:23:43.255Z,100436.01
2019-02-28T21:26:12.808Z,100434.33
2019-02-28T21:28:42.518Z,100431.77
2019-02-28T21:31:12.149Z,100436.53
2019-02-28T21:33:41.689Z,100436.08
2019-02-28T21:36:11.419Z,100436.42
2019-02-28T21:38:41.053Z,100435.97
2019-02-28T21:41:10.738Z,100421.73
2019-02-28T21:43:40.333Z,100430.39
2019-02-28T21:46:09.871Z,100419.63
2019-02-28T21:48:39.414Z,100424.36
2019-02-28T21:51:09.024Z,100423.06
2019-02-28T21:53:38.568Z,100422.22
2019-02-28T21:56:08.115Z,100426.95
2019-02-28T21:58:37.705Z,100432.19
2019-02-28T22:01:07.329Z,100433.06
2019-02-28T22:03:36.867Z,100430.39
2019-02-28T22:06:06.939Z,100424.70
2019-02-28T22:08:36.488Z,100424.70
2019-02-28T22:11:06.068Z,100426.04
2019-02-28T22:13:35.736Z,100417.77
2019-02-28T22:16:05.362Z,100428.53
2019-02-28T22:18:34.919Z,100424.95
2019-02-28T22:21:04.596Z,100418.39
2019-02-28T22:23:34.155Z,100416.56
2019-02-28T22:26:03.778Z,100410.45
2019-02-28T22:28:33.385Z,100422.41
2019-02-28T22:31:16.558Z,100419.66
2019-02-28T22:33:47.769Z,100427.78
2019-02-28T22:36:19.027Z,100426.91
2019-02-28T22:38:48.600Z,100434.80
2019-02-28T22:41:18.164Z,100427.52
2019-02-28T22:43:47.722Z,100431.91
2019-02-28T22:46:17.290Z,100424.23
2019-02-28T22:48:46.848Z,100421.75
2019-02-28T22:51:16.390Z,100426.06
2019-02-28T22:53:45.958Z,100423.01
2019-02-28T22:56:15.510Z,100424.23
2019-02-28T22:58:45.209Z,100420.66
2019-02-28T23:01:22.059Z,100421.48
2019-02-28T23:03:52.190Z,100420.54
2019-02-28T23:06:21.863Z,100428.28
2019-02-28T23:08:51.416Z,100417.87
2019-02-28T23:11:20.997Z,100417.80
2019-02-28T23:13:50.530Z,100402.91
2019-02-28T23:16:20.116Z,100406.98
2019-02-28T23:18:49.670Z,100398.39
2019-02-28T23:21:19.250Z,100397.53
2019-02-28T23:23:48.804Z,100404.13
2019-02-28T23:26:20.015Z,100396.06
2019-02-28T23:28:56.872Z,100392.87
2019-02-28T23:32:18.128Z,100397.02
2019-02-28T23:34:47.771Z,100393.41
2019-02-28T23:37:17.316Z,100384.09
2019-02-28T23:39:46.965Z,100385.34
2019-02-28T23:42:16.502Z,100381.87
2019-02-28T23:44:46.058Z,100376.52
2019-02-28T23:47:15.651Z,100377.34
2019-02-28T23:49:45.191Z,100371.20
2019-02-28T23:52:14.776Z,100370.14
2019-02-28T23:54:44.323Z,100371.25
2019-02-28T23:57:13.886Z,100367.64
2019-02-28T23:59:43.457Z,100373.47
